createdAt,value
2018-06-29T04:31:05.340Z,90.24
2018-06-29T04:32:05.232Z,90.91
2018-06-29T04:33:04.973Z,91.05
2018-06-29T04:34:05.210Z,90.82
2018-06-29T04:35:05.201Z,91.63
2018-06-29T04:36:05.185Z,92.3
2018-06-29T04:37:04.915Z,91.82
2018-06-29T04:38:05.160Z,92.68
2018-06-29T04:39:04.885Z,92.49
2018-06-29T04:40:05.129Z,92.78
2018-06-29T04:41:05.117Z,93.35
2018-06-29T04:42:05.123Z,93.16
2018-06-29T04:43:05.100Z,92.97
2018-06-29T04:44:05.084Z,92.58
2018-06-29T04:45:05.072Z,92.4
2018-06-29T04:46:04.789Z,92.78
2018-06-29T04:47:05.058Z,92.78
2018-06-29T04:48:05.028Z,92.78
2018-06-29T04:49:04.771Z,93.07
2018-06-29T04:50:04.744Z,93.07
2018-06-29T04:51:04.730Z,93.64
2018-06-29T04:52:04.716Z,93.74
2018-06-29T04:53:04.980Z,92.78
2018-06-29T04:54:04.955Z,92.49
2018-06-29T04:55:04.949Z,92.78
2018-06-29T04:56:04.667Z,92.92
2018-06-29T04:57:04.666Z,92.92
2018-06-29T04:58:04.645Z,92.73
2018-06-29T04:59:04.636Z,92.73
2018-06-29T05:00:04.638Z,92.35
2018-06-29T05:01:04.694Z,92.63
2018-06-29T05:02:04.620Z,93.21
2018-06-29T05:03:04.844Z,93.59
2018-06-29T05:04:04.578Z,92.82
2018-06-29T05:05:04.574Z,93.4
2018-06-29T05:06:04.810Z,93.3
2018-06-29T05:07:04.801Z,93.69
2018-06-29T05:08:04.789Z,94.26
2018-06-29T05:09:05.183Z,93.88
2018-06-29T05:10:04.765Z,93.78
2018-06-29T05:11:04.749Z,94.35
2018-06-29T05:12:04.737Z,94.55
2018-06-29T05:13:04.456Z,94.35
2018-06-29T05:14:04.446Z,94.64
2018-06-29T05:15:04.435Z,93.49
2018-06-29T05:16:04.430Z,94.02
2018-06-29T05:17:04.412Z,94.98
2018-06-29T05:18:04.662Z,94.4
2018-06-29T05:19:04.386Z,94.79
2018-06-29T05:20:04.657Z,95.26
2018-06-29T05:21:04.639Z,94.69
2018-06-29T05:22:04.351Z,95.65
2018-06-29T05:23:04.335Z,96.42
2018-06-29T05:24:04.328Z,95.84
2018-06-29T05:25:04.580Z,96.51
2018-06-29T05:26:04.573Z,97.38
2018-06-29T05:27:04.554Z,97.95
2018-06-29T05:28:04.279Z,96.89
2018-06-29T05:29:04.533Z,96.61
2018-06-29T05:30:04.525Z,97.66
2018-06-29T05:31:04.512Z,97.66
2018-06-29T05:32:04.492Z,97.61
2018-06-29T05:33:04.418Z,97.66
2018-06-29T05:34:04.204Z,95.89
2018-06-29T05:35:04.195Z,98.19
2018-06-29T05:36:04.192Z,98.1
2018-06-29T05:37:04.450Z,98.48
2018-06-29T05:38:04.159Z,98.19
2018-06-29T05:39:04.144Z,98.57
2018-06-29T05:40:04.148Z,97.9
2018-06-29T05:41:04.124Z,98.57
2018-06-29T05:42:04.379Z,98.57
2018-06-29T05:43:04.366Z,98.96
2018-06-29T05:44:04.090Z,97.9
2018-06-29T05:45:04.074Z,98.38
2018-06-29T05:46:04.328Z,98.77
2018-06-29T05:47:04.121Z,99.53
2018-06-29T05:48:04.044Z,99.99
2018-06-29T05:49:04.028Z,99.49
2018-06-29T05:50:04.019Z,99.99
2018-06-29T05:51:04.005Z,99.58
2018-06-29T05:52:04.264Z,99.99
2018-06-29T05:53:04.045Z,99.99
2018-06-29T05:54:03.974Z,99.99
2018-06-29T05:55:04.236Z,99.99
2018-06-29T05:56:04.222Z,99.99
2018-06-29T05:57:04.204Z,99.99
2018-06-29T05:58:03.927Z,99.99
2018-06-29T05:59:04.193Z,99.99
2018-06-29T06:00:04.165Z,99.99
2018-06-29T06:01:04.155Z,99.99
2018-06-29T06:02:03.933Z,99.99
2018-06-29T06:03:03.871Z,99.99
2018-06-29T06:04:04.159Z,99.99
2018-06-29T06:05:04.116Z,99.99
2018-06-29T06:06:04.103Z,99.99
2018-06-29T06:07:04.098Z,99.99
2018-06-29T06:08:04.077Z,99.99
2018-06-29T06:09:04.070Z,99.99
2018-06-29T06:10:03.850Z,99.99
2018-06-29T06:11:04.045Z,99.99
2018-06-29T06:12:03.765Z,99.99
2018-06-29T06:13:03.753Z,99.99
2018-06-29T06:14:03.743Z,99.99
2018-06-29T06:15:03.753Z,99.99
2018-06-29T06:16:04.087Z,99.99
2018-06-29T06:17:04.003Z,99.99
2018-06-29T06:18:03.988Z,99.99
2018-06-29T06:19:03.706Z,99.99
2018-06-29T06:20:03.680Z,99.99
2018-06-29T06:21:03.665Z,99.99
2018-06-29T06:22:04.090Z,99.99
2018-06-29T06:23:03.920Z,99.99
2018-06-29T06:24:03.638Z,99.99
2018-06-29T06:25:03.897Z,99.99
2018-06-29T06:26:03.879Z,99.99
2018-06-29T06:27:03.870Z,99.99
2018-06-29T06:28:03.594Z,99.99
2018-06-29T06:29:03.586Z,99.99
2018-06-29T06:30:04.050Z,99.99
2018-06-29T06:31:03.833Z,99.99
2018-06-29T06:32:03.823Z,99.99
2018-06-29T06:33:03.566Z,99.99
2018-06-29T06:34:03.824Z,99.99
2018-06-29T06:35:03.793Z,99.99
2018-06-29T06:36:03.781Z,99.99
2018-06-29T06:37:03.776Z,99.99
2018-06-29T06:38:03.764Z,99.99
2018-06-29T06:39:03.761Z,99.99
2018-06-29T06:40:03.746Z,99.99
2018-06-29T06:41:03.480Z,99.99
2018-06-29T06:42:03.724Z,99.99
2018-06-29T06:43:03.719Z,99.99
2018-06-29T06:44:03.438Z,99.99
2018-06-29T06:45:03.697Z,99.99
2018-06-29T06:46:03.685Z,99.99
2018-06-29T06:47:03.775Z,99.99
2018-06-29T06:48:03.668Z,99.99
2018-06-29T06:49:03.394Z,99.99
2018-06-29T06:50:03.387Z,99.99
2018-06-29T06:51:03.640Z,99.99
2018-06-29T06:52:03.630Z,99.99
2018-06-29T06:53:03.619Z,99.99
2018-06-29T06:54:03.347Z,99.99
2018-06-29T06:55:03.600Z,99.99
2018-06-29T06:56:03.601Z,99.99
2018-06-29T06:57:03.583Z,99.99
2018-06-29T06:58:03.584Z,99.99
2018-06-29T06:59:03.303Z,99.99
2018-06-29T07:00:03.569Z,99.99
2018-06-29T07:01:03.550Z,99.99
2018-06-29T07:02:03.278Z,98.78
2018-06-29T07:03:03.534Z,86.47
2018-06-29T07:04:03.533Z,81.41
2018-06-29T07:05:03.257Z,77.35
2018-06-29T07:06:03.511Z,72.56
2018-06-29T07:07:03.240Z,71.66
2018-06-29T07:08:03.238Z,70.27
2018-06-29T07:09:03.220Z,67.47
2018-06-29T07:10:03.477Z,65.56
2018-06-29T07:11:03.207Z,65.59
2018-06-29T07:12:03.463Z,64.51
2018-06-29T07:13:03.464Z,63.44
2018-06-29T07:14:03.184Z,63.18
2018-06-29T07:15:03.436Z,62.3
2018-06-29T07:16:03.429Z,60.94
2018-06-29T07:17:03.155Z,60.86
2018-06-29T07:18:03.149Z,60.99
2018-06-29T07:19:03.155Z,59.75
2018-06-29T07:20:03.409Z,59.09
2018-06-29T07:21:03.127Z,57.56
2018-06-29T07:22:03.386Z,57.46
2018-06-29T07:23:03.114Z,56.02
2018-06-29T07:24:03.376Z,56.02
2018-06-29T07:25:03.365Z,56.24
2018-06-29T07:26:03.361Z,55.26
2018-06-29T07:27:03.095Z,55.07
2018-06-29T07:28:03.088Z,55.16
2018-06-29T07:29:03.088Z,54.48
2018-06-29T07:30:03.493Z,54.41
2018-06-29T07:31:03.339Z,53.82
2018-06-29T07:32:03.348Z,53.63
2018-06-29T07:33:03.540Z,54.14
2018-06-29T07:34:03.328Z,52.28
2018-06-29T07:35:03.324Z,52.69
2018-06-29T07:36:03.327Z,51.03
2018-06-29T07:37:03.057Z,52.4
2018-06-29T07:38:03.317Z,51.72
2018-06-29T07:39:03.057Z,50.76
2018-06-29T07:40:03.048Z,51.05
2018-06-29T07:41:03.051Z,50.29
2018-06-29T07:42:03.051Z,50.51
2018-06-29T07:43:03.323Z,49.46
2018-06-29T07:44:03.050Z,48.89
2018-06-29T07:45:03.044Z,48.89
2018-06-29T07:46:03.045Z,48.39
2018-06-29T07:47:03.337Z,48.2
2018-06-29T07:48:03.044Z,47.14
2018-06-29T07:49:03.309Z,47.83
2018-06-29T07:50:03.313Z,47.56
2018-06-29T07:51:03.310Z,47.16
2018-06-29T07:52:03.311Z,46.97
2018-06-29T07:53:03.312Z,47.19
2018-06-29T07:54:03.056Z,47.38
2018-06-29T07:55:03.049Z,47.09
2018-06-29T07:56:03.048Z,46.5
2018-06-29T07:57:03.317Z,46.69
2018-06-29T07:58:03.407Z,47.16
2018-06-29T07:59:03.321Z,46.5
2018-06-29T08:00:03.321Z,46
2018-06-29T08:01:03.062Z,45.73
2018-06-29T08:02:03.323Z,45.34
2018-06-29T08:03:03.327Z,46.03
2018-06-29T08:04:03.503Z,45.93
2018-06-29T08:05:03.064Z,45.65
2018-06-29T08:06:03.069Z,45.26
2018-06-29T08:07:03.069Z,45.16
2018-06-29T08:08:03.072Z,46.22
2018-06-29T08:09:03.076Z,46.32
2018-06-29T08:10:03.367Z,45.63
2018-06-29T08:11:03.078Z,45.34
2018-06-29T08:12:03.088Z,45.14
2018-06-29T08:13:03.351Z,45.34
2018-06-29T08:14:03.085Z,44.74
2018-06-29T08:15:03.359Z,45.26
2018-06-29T08:16:03.357Z,44.67
2018-06-29T08:17:03.374Z,44.29
2018-06-29T08:18:03.103Z,44.49
2018-06-29T08:19:03.366Z,44.79
2018-06-29T08:20:03.375Z,44.2
2018-06-29T08:21:03.112Z,43.9
2018-06-29T08:22:03.380Z,43.6
2018-06-29T08:23:03.386Z,43.51
2018-06-29T08:24:03.118Z,44.1
2018-06-29T08:25:03.392Z,44.29
2018-06-29T08:26:03.394Z,44.79
2018-06-29T08:27:03.137Z,43.7
2018-06-29T08:28:03.140Z,44.02
2018-06-29T08:29:03.417Z,43.43
2018-06-29T08:30:03.425Z,42.83
2018-06-29T08:31:03.155Z,43.6
2018-06-29T08:32:03.420Z,44
2018-06-29T08:33:03.161Z,43.98
2018-06-29T08:34:03.428Z,44.45
2018-06-29T08:35:03.165Z,43.84
2018-06-29T08:36:03.429Z,44.23
2018-06-29T08:37:03.168Z,45.02
2018-06-29T08:38:03.439Z,44.82
2018-06-29T08:39:03.182Z,46.47
2018-06-29T08:40:03.447Z,46.35
2018-06-29T08:41:03.447Z,45.76
2018-06-29T08:42:03.454Z,46.23
2018-06-29T08:43:03.457Z,46.21
2018-06-29T08:44:03.185Z,47.05
2018-06-29T08:45:03.186Z,49.16
2018-06-29T08:46:03.455Z,49.97
2018-06-29T08:47:03.658Z,50.42
2018-06-29T08:48:03.451Z,52.54
2018-06-29T08:49:03.188Z,52.78
2018-06-29T08:50:03.209Z,53.42
2018-06-29T08:51:03.456Z,56.02
2018-06-29T08:52:03.452Z,55.61
2018-06-29T08:53:03.451Z,55.68
2018-06-29T08:54:03.453Z,57.21
2018-06-29T08:55:03.647Z,56.79
2018-06-29T08:56:03.185Z,57.64
2018-06-29T08:57:03.451Z,58.59
2018-06-29T08:58:03.186Z,60.5
2018-06-29T08:59:03.450Z,61.18
2018-06-29T09:00:03.444Z,60.47
2018-06-29T09:01:03.194Z,60.38
2018-06-29T09:02:03.452Z,59.82
2018-06-29T09:03:03.188Z,58.51
2018-06-29T09:04:03.184Z,57.67
2018-06-29T09:05:03.616Z,55.48
2018-06-29T09:06:03.450Z,53.39
2018-06-29T09:07:03.196Z,50.9
2018-06-29T09:08:03.473Z,50.93
2018-06-29T09:09:03.193Z,50.29
2018-06-29T09:10:03.461Z,48.68
2018-06-29T09:11:03.607Z,47.03
2018-06-29T09:12:03.468Z,46.86
2018-06-29T09:13:03.206Z,46.3
2018-06-29T09:14:03.479Z,46.51
2018-06-29T09:15:03.211Z,46.04
2018-06-29T09:16:03.218Z,46.17
2018-06-29T09:17:03.221Z,45.67
2018-06-29T09:18:03.506Z,44.91
2018-06-29T09:19:03.236Z,46.28
2018-06-29T09:20:03.231Z,46.26
2018-06-29T09:21:03.503Z,46.93
2018-06-29T09:22:03.506Z,47.32
2018-06-29T09:23:03.503Z,47.69
2018-06-29T09:24:03.244Z,47.2
2018-06-29T09:25:03.250Z,46.81
2018-06-29T09:26:03.248Z,47.74
2018-06-29T09:27:03.249Z,48.5
2018-06-29T09:28:03.519Z,48.09
2018-06-29T09:29:03.257Z,48.94
2018-06-29T09:30:03.710Z,47.69
2018-06-29T09:31:03.525Z,47.47
2018-06-29T09:32:03.528Z,48.36
2018-06-29T09:33:04.191Z,49.6
2018-06-29T09:34:03.534Z,50.66
2018-06-29T09:35:03.270Z,50.63
2018-06-29T09:36:03.271Z,51.61
2018-06-29T09:37:03.548Z,51.51
2018-06-29T09:38:03.547Z,51.12
2018-06-29T09:39:03.280Z,51.51
2018-06-29T09:40:03.285Z,50.56
2018-06-29T09:41:03.551Z,49.68
2018-06-29T09:42:03.557Z,48.75
2018-06-29T09:43:03.562Z,47.89
2018-06-29T09:44:03.298Z,47.13
2018-06-29T09:45:03.572Z,46.74
2018-06-29T09:46:03.311Z,45.59
2018-06-29T09:47:03.578Z,45.39
2018-06-29T09:48:03.466Z,45.66
2018-06-29T09:49:03.588Z,46.33
2018-06-29T09:50:03.592Z,47.57
2018-06-29T09:51:03.594Z,48.46
2018-06-29T09:52:03.333Z,48.24
2018-06-29T09:53:03.605Z,49.29
2018-06-29T09:54:03.375Z,49.85
2018-06-29T09:55:03.341Z,51.1
2018-06-29T09:56:03.603Z,51.59
2018-06-29T09:57:03.612Z,51.56
2018-06-29T09:58:03.618Z,51.76
2018-06-29T09:59:03.349Z,50.29
2018-06-29T10:00:03.350Z,51.24
2018-06-29T10:01:03.763Z,50.92
2018-06-29T10:02:03.349Z,50.24
2018-06-29T10:03:03.352Z,50.82
2018-06-29T10:04:03.347Z,50.53
2018-06-29T10:05:03.349Z,52.07
2018-06-29T10:06:03.620Z,51.58
2018-06-29T10:07:03.617Z,52.04
2018-06-29T10:08:03.351Z,51.56
2018-06-29T10:09:03.617Z,51.56
2018-06-29T10:10:03.614Z,52.04
2018-06-29T10:11:03.370Z,50.38
2018-06-29T10:12:03.620Z,50.85
2018-06-29T10:13:03.614Z,51.75
2018-06-29T10:14:03.702Z,50.19
2018-06-29T10:15:03.625Z,51.56
2018-06-29T10:16:03.613Z,50.68
2018-06-29T10:17:03.615Z,51.65
2018-06-29T10:18:03.615Z,51.85
2018-06-29T10:19:03.607Z,51.46
2018-06-29T10:20:03.980Z,52.53
2018-06-29T10:21:03.608Z,52.73
2018-06-29T10:22:03.369Z,51.75
2018-06-29T10:23:03.609Z,51.19
2018-06-29T10:24:03.342Z,49.93
2018-06-29T10:25:03.677Z,50.12
2018-06-29T10:26:03.347Z,51.41
2018-06-29T10:27:03.343Z,50.78
2018-06-29T10:28:03.797Z,49.92
2018-06-29T10:29:03.348Z,48.41
2018-06-29T10:30:03.613Z,48.14
2018-06-29T10:31:03.617Z,47.6
2018-06-29T10:32:03.628Z,47.23
2018-06-29T10:33:03.359Z,46.17
2018-06-29T10:34:03.830Z,45.31
2018-06-29T10:35:03.367Z,46.12
2018-06-29T10:36:03.794Z,45.16
2018-06-29T10:37:03.377Z,45.95
2018-06-29T10:38:03.374Z,44.08
2018-06-29T10:39:03.654Z,43.32
2018-06-29T10:40:03.384Z,42.35
2018-06-29T10:41:03.398Z,43.43
2018-06-29T10:42:03.667Z,44.05
2018-06-29T10:43:03.666Z,43.18
2018-06-29T10:44:03.684Z,45.37
2018-06-29T10:45:03.911Z,42.34
2018-06-29T10:46:03.419Z,40.19
2018-06-29T10:47:03.429Z,43.54
2018-06-29T10:48:03.700Z,42.46
2018-06-29T10:49:03.704Z,42.08
2018-06-29T10:50:03.719Z,42.77
2018-06-29T10:51:03.718Z,44.27
2018-06-29T10:52:03.463Z,43.27
2018-06-29T10:53:03.737Z,41.61
2018-06-29T10:54:03.488Z,38.95
2018-06-29T10:55:03.758Z,38.65
2018-06-29T10:56:03.759Z,38.28
2018-06-29T10:57:03.765Z,40.15
2018-06-29T10:58:03.507Z,40.51
2018-06-29T10:59:03.785Z,40.21
2018-06-29T11:00:03.521Z,39.44
2018-06-29T11:01:03.798Z,38.75
2018-06-29T11:02:03.802Z,39.42
2018-06-29T11:03:03.807Z,40.53
2018-06-29T11:04:03.814Z,39.64
2018-06-29T11:05:03.563Z,38.87
2018-06-29T11:06:03.838Z,38.49
2018-06-29T11:07:03.577Z,38.1
2018-06-29T11:08:03.849Z,39.2
2018-06-29T11:09:03.591Z,38.61
2018-06-29T11:10:03.603Z,37.24
2018-06-29T11:11:03.981Z,38.55
2018-06-29T11:12:03.887Z,37.66
2018-06-29T11:13:03.626Z,37.28
2018-06-29T11:14:03.632Z,37.68
2018-06-29T11:15:03.650Z,37.56
2018-06-29T11:16:03.654Z,36.27
2018-06-29T11:17:03.936Z,37.28
2018-06-29T11:18:03.955Z,37.28
2018-06-29T11:19:03.945Z,36.29
2018-06-29T11:20:03.955Z,37.16
2018-06-29T11:21:03.695Z,37.36
2018-06-29T11:22:03.704Z,37.08
2018-06-29T11:23:03.976Z,36.98
2018-06-29T11:24:03.723Z,36.79
2018-06-29T11:25:03.728Z,36.49
2018-06-29T11:26:04.003Z,36.79
2018-06-29T11:27:03.745Z,36.79
2018-06-29T11:28:03.757Z,37.05
2018-06-29T11:29:04.034Z,37.23
2018-06-29T11:30:04.042Z,36.54
2018-06-29T11:31:03.783Z,37.13
2018-06-29T11:32:03.795Z,36.75
2018-06-29T11:33:04.070Z,37.24
2018-06-29T11:34:04.044Z,37.34
2018-06-29T11:35:04.090Z,36.87
2018-06-29T11:36:03.828Z,36.69
2018-06-29T11:37:03.840Z,36.51
2018-06-29T11:38:03.846Z,35.61
2018-06-29T11:39:03.853Z,34.74
2018-06-29T11:40:04.141Z,37.58
2018-06-29T11:41:04.139Z,36.79
2018-06-29T11:42:03.879Z,37.18
2018-06-29T11:43:03.891Z,36.69
2018-06-29T11:44:03.949Z,37.28
2018-06-29T11:45:04.178Z,37.08
2018-06-29T11:46:04.182Z,37.28
2018-06-29T11:47:04.196Z,37.1
2018-06-29T11:48:03.943Z,36.51
2018-06-29T11:49:04.214Z,36.8
2018-06-29T11:50:04.228Z,37.7
2018-06-29T11:51:04.230Z,37.77
2018-06-29T11:52:03.977Z,38.47
2018-06-29T11:53:04.250Z,37.41
2018-06-29T11:54:03.993Z,36.82
2018-06-29T11:55:04.006Z,36.33
2018-06-29T11:56:04.018Z,36.62
2018-06-29T11:57:04.300Z,36.51
2018-06-29T11:58:04.303Z,36.41
2018-06-29T11:59:04.312Z,36.43
2018-06-29T12:00:04.055Z,34.64
2018-06-29T12:01:04.065Z,35.72
2018-06-29T12:02:04.077Z,35.22
2018-06-29T12:03:04.352Z,35.83
2018-06-29T12:04:04.095Z,35.73
2018-06-29T12:05:04.367Z,36.33
2018-06-29T12:06:04.113Z,37.22
2018-06-29T12:07:04.126Z,37.32
2018-06-29T12:08:04.403Z,36.33
2018-06-29T12:09:04.428Z,35.93
2018-06-29T12:10:04.158Z,35.65
2018-06-29T12:11:04.164Z,36.26
2018-06-29T12:12:04.442Z,36.86
2018-06-29T12:13:04.183Z,35.69
2018-06-29T12:14:04.456Z,35.49
2018-06-29T12:15:04.490Z,35.5
2018-06-29T12:16:04.213Z,34.73
2018-06-29T12:17:04.493Z,34.92
2018-06-29T12:18:04.504Z,34.15
2018-06-29T12:19:04.505Z,35.04
2018-06-29T12:20:04.253Z,33.55
2018-06-29T12:21:04.263Z,34.94
2018-06-29T12:22:04.276Z,34.05
2018-06-29T12:23:04.546Z,34.15
2018-06-29T12:24:04.578Z,34.25
2018-06-29T12:25:04.573Z,33.25
2018-06-29T12:26:04.576Z,33.25
2018-06-29T12:27:04.330Z,32.06
2018-06-29T12:28:04.822Z,32.66
2018-06-29T12:29:04.608Z,33.55
2018-06-29T12:30:04.374Z,33.72
2018-06-29T12:31:04.372Z,35.29
2018-06-29T12:32:04.650Z,35.09
2018-06-29T12:33:04.651Z,35.88
2018-06-29T12:34:04.653Z,35.39
2018-06-29T12:35:04.404Z,35.55
2018-06-29T12:36:04.451Z,35.86
2018-06-29T12:37:04.688Z,34.89
2018-06-29T12:38:04.865Z,34.8
2018-06-29T12:39:04.447Z,36.36
2018-06-29T12:40:04.716Z,34.4
2018-06-29T12:41:04.459Z,34
2018-06-29T12:42:04.470Z,34.69
2018-06-29T12:43:04.745Z,34.99
2018-06-29T12:44:04.751Z,34.8
2018-06-29T12:45:04.777Z,34.5
2018-06-29T12:46:04.517Z,35.71
2018-06-29T12:47:04.525Z,34.81
2018-06-29T12:48:04.528Z,34.83
2018-06-29T12:49:04.541Z,34.53
2018-06-29T12:50:04.545Z,34.92
2018-06-29T12:51:04.826Z,35.22
2018-06-29T12:52:04.566Z,35.41
2018-06-29T12:53:04.577Z,35.78
2018-06-29T12:54:04.858Z,35.57
2018-06-29T12:55:04.595Z,34.28
2018-06-29T12:56:04.606Z,36.48
2018-06-29T12:57:05.057Z,35.69
2018-06-29T12:58:04.627Z,35.11
2018-06-29T12:59:05.178Z,35.62
2018-06-29T13:00:04.647Z,33.14
2018-06-29T13:01:04.657Z,33.03
2018-06-29T13:02:04.818Z,32.91
2018-06-29T13:03:04.682Z,34.89
2018-06-29T13:04:04.685Z,35.27
2018-06-29T13:05:04.961Z,35.55
2018-06-29T13:06:04.712Z,34.78
2018-06-29T13:07:04.992Z,34.8
2018-06-29T13:08:04.995Z,34.69
2018-06-29T13:09:05.000Z,34.4
2018-06-29T13:10:05.027Z,35.07
2018-06-29T13:11:05.020Z,35.17
2018-06-29T13:12:05.034Z,35.46
2018-06-29T13:13:05.034Z,35.53
2018-06-29T13:14:05.076Z,34.94
2018-06-29T13:15:05.109Z,35.75
2018-06-29T13:16:05.076Z,35.27
2018-06-29T13:17:04.808Z,35.67
2018-06-29T13:18:05.079Z,34.38
2018-06-29T13:19:05.092Z,34.78
2018-06-29T13:20:05.109Z,34.4
2018-06-29T13:21:04.847Z,35.78
2018-06-29T13:22:05.118Z,35.07
2018-06-29T13:23:05.128Z,35.37
2018-06-29T13:24:05.145Z,35.35
2018-06-29T13:25:05.418Z,35.16
2018-06-29T13:26:05.157Z,35.73
2018-06-29T13:27:05.177Z,35.25
2018-06-29T13:28:05.179Z,35.73
2018-06-29T13:29:05.194Z,36.62
2018-06-29T13:30:04.931Z,35.44
2018-06-29T13:31:04.946Z,36.82
2018-06-29T13:32:05.214Z,36.03
2018-06-29T13:33:04.961Z,35.73
2018-06-29T13:34:05.436Z,35.42
2018-06-29T13:35:04.979Z,35.8
2018-06-29T13:36:05.064Z,35.78
2018-06-29T13:37:05.263Z,35.6
2018-06-29T13:38:05.009Z,36.77
2018-06-29T13:39:05.282Z,36.19
2018-06-29T13:40:05.293Z,36.59
2018-06-29T13:41:05.042Z,37.46
2018-06-29T13:42:05.047Z,36.67
2018-06-29T13:43:05.050Z,35.68
2018-06-29T13:44:05.413Z,35.88
2018-06-29T13:45:05.076Z,35.57
2018-06-29T13:46:05.351Z,37.46
2018-06-29T13:47:05.091Z,37.85
2018-06-29T13:48:05.362Z,37.18
2018-06-29T13:49:05.391Z,36.98
2018-06-29T13:50:05.383Z,35.24
2018-06-29T13:51:05.129Z,35.83
2018-06-29T13:52:05.143Z,35.83
2018-06-29T13:53:05.141Z,36.23
2018-06-29T13:54:05.425Z,36.44
2018-06-29T13:55:05.163Z,35.75
2018-06-29T13:56:05.447Z,36.52
2018-06-29T13:57:05.464Z,36.13
2018-06-29T13:58:05.452Z,35.93
2018-06-29T13:59:05.463Z,37.49
2018-06-29T14:00:05.476Z,35.82
2018-06-29T14:01:05.485Z,37.85
2018-06-29T14:02:05.487Z,38.06
2018-06-29T14:03:05.494Z,36.67
2018-06-29T14:04:05.254Z,36.97
2018-06-29T14:05:05.248Z,36.57
2018-06-29T14:06:05.524Z,36.47
2018-06-29T14:07:05.265Z,37.36
2018-06-29T14:08:05.283Z,36.67
2018-06-29T14:09:05.282Z,36.65
2018-06-29T14:10:05.292Z,36.97
2018-06-29T14:11:05.568Z,37.24
2018-06-29T14:12:05.572Z,37.23
2018-06-29T14:13:05.313Z,37.84
2018-06-29T14:14:05.326Z,36.95
2018-06-29T14:15:05.599Z,37.43
2018-06-29T14:16:05.613Z,37.72
2018-06-29T14:17:05.613Z,37.72
2018-06-29T14:18:05.420Z,38
2018-06-29T14:19:05.636Z,37.8
2018-06-29T14:20:05.379Z,38.39
2018-06-29T14:21:05.653Z,37.01
2018-06-29T14:22:05.393Z,37.13
2018-06-29T14:23:05.670Z,36.54
2018-06-29T14:24:05.409Z,36.93
2018-06-29T14:25:05.413Z,36.93
2018-06-29T14:26:05.423Z,37.21
2018-06-29T14:27:05.695Z,36.82
2018-06-29T14:28:05.701Z,37.98
2018-06-29T14:29:05.587Z,36.9
2018-06-29T14:30:05.453Z,37.19
2018-06-29T14:31:05.738Z,36.6
2018-06-29T14:32:05.730Z,37.27
2018-06-29T14:33:05.480Z,37.85
2018-06-29T14:34:05.490Z,38.43
2018-06-29T14:35:05.493Z,38.04
2018-06-29T14:36:05.502Z,39.12
2018-06-29T14:37:05.509Z,37.35
2018-06-29T14:38:05.789Z,38.26
2018-06-29T14:39:05.786Z,38.45
2018-06-29T14:40:05.803Z,37.96
2018-06-29T14:41:05.845Z,38.35
2018-06-29T14:42:05.814Z,36.99
2018-06-29T14:43:05.817Z,38.28
2018-06-29T14:44:05.830Z,37.59
2018-06-29T14:45:05.841Z,36.8
2018-06-29T14:46:05.858Z,36.52
2018-06-29T14:47:05.581Z,36.6
2018-06-29T14:48:05.589Z,36.7
2018-06-29T14:49:05.862Z,37.19
2018-06-29T14:50:05.605Z,37.96
2018-06-29T14:51:05.612Z,38.54
2018-06-29T14:52:05.620Z,37.45
2018-06-29T14:53:05.628Z,37.63
2018-06-29T14:54:05.637Z,38.42
2018-06-29T14:55:05.643Z,38.81
2018-06-29T14:56:05.911Z,38.43
2018-06-29T14:57:05.655Z,38.34
2018-06-29T14:58:05.660Z,37.95
2018-06-29T14:59:05.937Z,37.65
2018-06-29T15:00:05.984Z,37.15
2018-06-29T15:01:05.683Z,37.15
2018-06-29T15:02:05.951Z,37.85
2018-06-29T15:03:05.700Z,37.15
2018-06-29T15:04:05.964Z,37.73
2018-06-29T15:05:05.978Z,37.53
2018-06-29T15:06:05.720Z,38.81
2018-06-29T15:07:05.988Z,36.76
2018-06-29T15:08:05.992Z,36.86
2018-06-29T15:09:06.011Z,37.63
2018-06-29T15:10:05.755Z,36.45
2018-06-29T15:11:05.752Z,36.92
2018-06-29T15:12:05.760Z,37.02
2018-06-29T15:13:05.765Z,36.43
2018-06-29T15:14:06.042Z,36.63
2018-06-29T15:15:06.043Z,36.43
2018-06-29T15:16:06.054Z,36.04
2018-06-29T15:17:06.062Z,36.9
2018-06-29T15:18:06.067Z,37.3
2018-06-29T15:19:06.063Z,37.2
2018-06-29T15:20:06.070Z,37.4
2018-06-29T15:21:06.074Z,37.69
2018-06-29T15:22:06.284Z,37.59
2018-06-29T15:23:05.814Z,37.2
2018-06-29T15:24:05.823Z,38.46
2018-06-29T15:25:05.825Z,37.48
2018-06-29T15:26:05.831Z,37.67
2018-06-29T15:27:06.099Z,37.55
2018-06-29T15:28:05.837Z,37.95
2018-06-29T15:29:06.109Z,37.54
2018-06-29T15:30:05.845Z,38.13
2018-06-29T15:31:06.127Z,38.42
2018-06-29T15:32:05.847Z,37.93
2018-06-29T15:33:06.114Z,37.54
2018-06-29T15:34:06.319Z,37.54
2018-06-29T15:35:05.851Z,38.23
2018-06-29T15:36:06.120Z,38.32
2018-06-29T15:37:06.120Z,36.65
2018-06-29T15:38:05.861Z,38.23
2018-06-29T15:39:06.131Z,37.05
2018-06-29T15:40:06.137Z,37.54
2018-06-29T15:41:06.128Z,36.44
2018-06-29T15:42:06.131Z,37.11
2018-06-29T15:43:05.866Z,37.4
2018-06-29T15:44:06.132Z,37.58
2018-06-29T15:45:05.868Z,38.17
2018-06-29T15:46:05.866Z,37.7
2018-06-29T15:47:06.143Z,37.98
2018-06-29T15:48:05.865Z,37.66
2018-06-29T15:49:06.129Z,38.74
2018-06-29T15:50:05.866Z,38.45
2018-06-29T15:51:06.138Z,39.01
2018-06-29T15:52:06.127Z,39.51
2018-06-29T15:53:05.865Z,39.9
2018-06-29T15:54:05.865Z,40.09
2018-06-29T15:55:05.874Z,39.7
2018-06-29T15:56:05.865Z,40
2018-06-29T15:57:05.866Z,39.7
2018-06-29T15:58:06.128Z,39.61
2018-06-29T15:59:05.864Z,40.19
2018-06-29T16:00:05.867Z,41.56
2018-06-29T16:01:06.130Z,41.08
2018-06-29T16:02:05.865Z,41.86
2018-06-29T16:03:06.127Z,41.05
2018-06-29T16:04:05.861Z,41.64
2018-06-29T16:05:06.128Z,40.08
2018-06-29T16:06:05.856Z,41.05
2018-06-29T16:07:05.859Z,40.86
2018-06-29T16:08:06.125Z,40.86
2018-06-29T16:09:06.121Z,41.05
2018-06-29T16:10:06.121Z,41.42
2018-06-29T16:11:06.117Z,42.21
2018-06-29T16:12:06.132Z,41.42
2018-06-29T16:13:06.114Z,41.8
2018-06-29T16:14:06.110Z,42.38
2018-06-29T16:15:06.116Z,42.68
2018-06-29T16:16:05.847Z,42.48
2018-06-29T16:17:06.117Z,43.76
2018-06-29T16:18:05.844Z,44.93
2018-06-29T16:19:05.844Z,43.66
2018-06-29T16:20:05.841Z,43.76
2018-06-29T16:21:06.102Z,43.85
2018-06-29T16:22:06.105Z,43.27
2018-06-29T16:23:05.836Z,42.88
2018-06-29T16:24:06.101Z,43.56
2018-06-29T16:25:06.098Z,43.44
2018-06-29T16:26:05.830Z,43.63
2018-06-29T16:27:05.830Z,43.85
2018-06-29T16:28:06.097Z,42.76
2018-06-29T16:29:05.821Z,43.63
2018-06-29T16:30:05.822Z,42.95
2018-06-29T16:31:06.087Z,43.24
2018-06-29T16:32:05.818Z,43.54
2018-06-29T16:33:06.079Z,43.24
2018-06-29T16:34:06.078Z,43.73
2018-06-29T16:35:05.812Z,45.01
2018-06-29T16:36:05.810Z,44.52
2018-06-29T16:37:05.807Z,44.62
2018-06-29T16:38:06.072Z,44.03
2018-06-29T16:39:05.804Z,44.64
2018-06-29T16:40:06.066Z,44.44
2018-06-29T16:41:05.800Z,43.95
2018-06-29T16:42:05.799Z,43.95
2018-06-29T16:43:05.797Z,43.85
2018-06-29T16:44:06.056Z,44.05
2018-06-29T16:45:05.789Z,43.37
2018-06-29T16:46:05.795Z,44.15
2018-06-29T16:47:05.789Z,43.44
2018-06-29T16:48:06.052Z,43.84
2018-06-29T16:49:05.788Z,43.84
2018-06-29T16:50:05.779Z,44.62
2018-06-29T16:51:05.784Z,44.91
2018-06-29T16:52:05.780Z,44.32
2018-06-29T16:53:06.046Z,44.62
2018-06-29T16:54:05.776Z,44.52
2018-06-29T16:55:06.039Z,44.3
2018-06-29T16:56:06.045Z,44.49
2018-06-29T16:57:06.040Z,45.37
2018-06-29T16:58:05.773Z,45.59
2018-06-29T16:59:05.782Z,45.01
2018-06-29T17:00:05.776Z,44.69
2018-06-29T17:01:05.772Z,44.89
2018-06-29T17:02:05.773Z,45.97
2018-06-29T17:03:06.035Z,45.47
2018-06-29T17:04:05.769Z,45.37
2018-06-29T17:05:05.767Z,45.47
2018-06-29T17:06:05.767Z,45.47
2018-06-29T17:07:06.032Z,45.86
2018-06-29T17:08:06.029Z,46.55
2018-06-29T17:09:06.027Z,46.65
2018-06-29T17:10:06.026Z,46.55
2018-06-29T17:11:06.028Z,47.14
2018-06-29T17:12:05.758Z,46.55
2018-06-29T17:13:05.769Z,46.23
2018-06-29T17:14:06.023Z,47.21
2018-06-29T17:15:06.021Z,46.92
2018-06-29T17:16:05.751Z,46.92
2018-06-29T17:17:06.019Z,46.92
2018-06-29T17:18:06.014Z,47.02
2018-06-29T17:19:06.015Z,47.5
2018-06-29T17:20:05.752Z,47.7
2018-06-29T17:21:06.013Z,47.5
2018-06-29T17:22:05.742Z,47.89
2018-06-29T17:23:06.006Z,47.99
2018-06-29T17:24:05.741Z,47.99
2018-06-29T17:25:05.748Z,49.53
2018-06-29T17:26:06.004Z,48.94